createdAt,value
2023-03-06T00:00:28.332Z,1.88
2023-03-06T00:02:54.754Z,1.90
2023-03-06T00:05:21.296Z,1.55
2023-03-06T00:07:47.748Z,1.52
2023-03-06T00:10:20.553Z,1.70
2023-03-06T00:12:46.984Z,2.17
2023-03-06T00:15:13.797Z,1.80
2023-03-06T00:17:40.364Z,1.65
2023-03-06T00:20:07.411Z,1.77
2023-03-06T00:22:33.840Z,1.73
2023-03-06T00:25:00.201Z,2.20
2023-03-06T00:27:26.566Z,1.52
2023-03-06T00:29:56.944Z,1.77
2023-03-06T00:32:23.874Z,1.90
2023-03-06T00:34:51.119Z,1.40
2023-03-06T00:37:17.779Z,1.13
2023-03-06T00:39:44.155Z,0.80
2023-03-06T00:42:10.524Z,1.00
2023-03-06T00:44:36.878Z,0.77
2023-03-06T00:47:03.425Z,0.60
2023-03-06T00:49:29.759Z,0.50
2023-03-06T00:51:56.091Z,0.70
2023-03-06T00:54:22.412Z,0.60
2023-03-06T00:56:48.853Z,0.50
2023-03-06T00:59:15.240Z,0.55
2023-03-06T01:01:41.622Z,0.40
2023-03-06T01:04:07.975Z,0.50
2023-03-06T01:06:34.323Z,0.47
2023-03-06T01:09:00.699Z,0.60
2023-03-06T01:11:27.058Z,0.50
2023-03-06T01:13:53.580Z,0.50
2023-03-06T01:16:19.933Z,0.50
2023-03-06T01:18:46.413Z,0.30
2023-03-06T01:21:13.066Z,0.50
2023-03-06T01:23:39.451Z,0.50
2023-03-06T01:26:06.274Z,0.57
2023-03-06T01:28:35.031Z,0.28
2023-03-06T01:31:01.999Z,0.45
2023-03-06T01:33:28.349Z,0.35
2023-03-06T01:35:54.772Z,0.35
2023-03-06T01:38:21.207Z,0.40
2023-03-06T01:40:47.716Z,0.40
2023-03-06T01:43:29.086Z,0.40
2023-03-06T01:46:27.699Z,0.28
2023-03-06T01:49:03.179Z,0.50
2023-03-06T01:51:32.030Z,0.38
2023-03-06T01:54:00.581Z,0.30
2023-03-06T01:56:27.069Z,0.50
2023-03-06T01:58:53.558Z,0.60
2023-03-06T02:01:20.311Z,0.40
2023-03-06T02:03:49.601Z,0.30
2023-03-06T02:06:19.752Z,0.30
2023-03-06T02:08:47.162Z,0.40
2023-03-06T02:11:24.268Z,0.28
2023-03-06T02:13:51.655Z,0.40
2023-03-06T02:16:19.976Z,0.40
2023-03-06T02:18:47.079Z,0.40
2023-03-06T02:21:20.251Z,0.45
2023-03-06T02:24:05.314Z,0.30
2023-03-06T02:26:33.094Z,0.20
2023-03-06T02:28:59.406Z,0.50
2023-03-06T02:31:27.393Z,0.38
2023-03-06T02:34:05.037Z,0.50
2023-03-06T02:36:33.566Z,0.63
2023-03-06T02:39:00.061Z,0.40
2023-03-06T02:41:26.489Z,0.30
2023-03-06T02:43:53.050Z,0.35
2023-03-06T02:46:19.525Z,0.20
2023-03-06T02:48:46.065Z,0.30
2023-03-06T02:51:12.374Z,0.35
2023-03-06T02:53:38.836Z,0.35
2023-03-06T02:56:05.349Z,0.40
2023-03-06T02:58:31.668Z,0.43
2023-03-06T03:00:58.014Z,0.30
2023-03-06T03:03:24.349Z,0.47
2023-03-06T03:05:50.667Z,0.30
2023-03-06T03:08:17.066Z,0.50
2023-03-06T03:10:43.513Z,0.30
2023-03-06T03:13:09.923Z,0.73
2023-03-06T03:15:36.477Z,0.30
2023-03-06T03:18:02.868Z,0.50
2023-03-06T03:20:29.320Z,0.30
2023-03-06T03:22:56.145Z,0.30
2023-03-06T03:25:23.392Z,0.40
2023-03-06T03:27:49.734Z,0.50
2023-03-06T03:30:16.217Z,0.35
2023-03-06T03:32:42.638Z,0.43
2023-03-06T03:35:09.651Z,0.20
2023-03-06T03:37:36.536Z,0.30
2023-03-06T03:40:04.137Z,0.57
2023-03-06T03:42:30.592Z,0.30
2023-03-06T03:44:56.971Z,0.40
2023-03-06T03:47:23.371Z,0.40
2023-03-06T03:49:49.767Z,0.45
2023-03-06T03:52:16.149Z,0.95
2023-03-06T03:54:42.466Z,0.30
2023-03-06T03:57:08.867Z,0.30
2023-03-06T03:59:35.273Z,0.50
2023-03-06T04:02:04.706Z,0.50
2023-03-06T04:04:31.081Z,0.30
2023-03-06T04:06:57.476Z,0.40
2023-03-06T04:09:23.795Z,0.50
2023-03-06T04:11:50.119Z,0.60
2023-03-06T04:14:16.489Z,0.50
2023-03-06T04:16:42.804Z,0.22
2023-03-06T04:19:09.127Z,0.30
2023-03-06T04:21:35.626Z,0.35
2023-03-06T04:24:01.941Z,0.77
2023-03-06T04:26:28.246Z,0.30
2023-03-06T04:28:56.096Z,0.68
2023-03-06T04:31:22.602Z,0.65
2023-03-06T04:33:49.074Z,0.38
2023-03-06T04:36:32.096Z,0.52
2023-03-06T04:38:59.345Z,0.60
2023-03-06T04:41:25.753Z,0.88
2023-03-06T04:43:52.318Z,0.77
2023-03-06T04:46:18.738Z,0.50
2023-03-06T04:48:45.150Z,0.75
2023-03-06T04:51:12.723Z,0.82
2023-03-06T04:53:39.408Z,1.00
2023-03-06T04:56:06.119Z,0.40
2023-03-06T04:58:32.481Z,0.90
2023-03-06T05:00:59.001Z,1.55
2023-03-06T05:03:25.528Z,0.47
2023-03-06T05:05:51.938Z,1.13
2023-03-06T05:08:18.506Z,0.60
2023-03-06T05:10:44.957Z,0.70
2023-03-06T05:13:11.436Z,0.52
2023-03-06T05:15:40.069Z,0.55
2023-03-06T05:18:06.386Z,0.70
2023-03-06T05:20:33.692Z,0.50
2023-03-06T05:23:00.230Z,0.68
2023-03-06T05:25:26.607Z,0.52
2023-03-06T05:27:53.022Z,0.75
2023-03-06T05:30:21.204Z,0.82
2023-03-06T05:32:47.649Z,1.85
2023-03-06T05:35:21.979Z,0.75
2023-03-06T05:37:48.702Z,0.82
2023-03-06T05:40:16.026Z,0.70
2023-03-06T05:42:42.417Z,0.77
2023-03-06T05:45:09.164Z,0.70
2023-03-06T05:47:35.672Z,0.70
2023-03-06T05:50:02.236Z,0.32
2023-03-06T05:52:28.577Z,0.20
2023-03-06T05:54:54.974Z,0.40
2023-03-06T05:57:22.441Z,0.20
2023-03-06T05:59:49.286Z,0.22
2023-03-06T06:02:15.987Z,0.25
2023-03-06T06:04:42.441Z,0.47
2023-03-06T06:07:12.547Z,0.30
2023-03-06T06:09:38.917Z,0.30
2023-03-06T06:12:05.540Z,0.45
2023-03-06T06:14:33.615Z,0.30
2023-03-06T06:16:59.958Z,0.30
2023-03-06T06:19:28.387Z,0.30
2023-03-06T06:21:54.758Z,0.25
2023-03-06T06:24:22.154Z,0.30
2023-03-06T06:26:52.686Z,0.43
2023-03-06T06:29:19.243Z,0.43
2023-03-06T06:31:45.651Z,0.20
2023-03-06T06:34:12.346Z,0.40
2023-03-06T06:36:39.061Z,0.30
2023-03-06T06:39:05.845Z,0.40
2023-03-06T06:41:56.931Z,0.35
2023-03-06T06:44:19.490Z,0.38
2023-03-06T06:49:33.275Z,0.40
2023-03-06T06:51:59.867Z,0.40
2023-03-06T06:54:26.474Z,0.45
2023-03-06T06:56:52.890Z,0.50
2023-03-06T06:59:19.413Z,0.57
2023-03-06T07:01:45.926Z,0.60
2023-03-06T07:04:13.252Z,0.65
2023-03-06T07:06:39.661Z,1.15
2023-03-06T07:09:06.185Z,0.47
2023-03-06T07:11:32.490Z,0.60
2023-03-06T07:13:58.921Z,0.55
2023-03-06T07:16:25.276Z,0.50
2023-03-06T07:18:51.607Z,0.63
2023-03-06T07:21:17.945Z,0.55
2023-03-06T07:23:44.591Z,0.40
2023-03-06T07:26:10.910Z,0.40
2023-03-06T07:28:51.207Z,0.20
2023-03-06T07:31:18.943Z,0.50
2023-03-06T07:33:45.342Z,0.50
2023-03-06T07:36:12.941Z,0.50
2023-03-06T07:38:40.379Z,0.57
2023-03-06T07:41:09.549Z,0.60
2023-03-06T07:43:35.892Z,0.50
2023-03-06T07:46:02.327Z,0.43
2023-03-06T07:48:28.699Z,0.45
2023-03-06T07:50:56.109Z,0.70
2023-03-06T07:53:22.724Z,0.40
2023-03-06T07:55:49.125Z,0.60
2023-03-06T07:58:15.496Z,0.50
2023-03-06T08:00:41.908Z,0.60
2023-03-06T08:03:09.486Z,0.50
2023-03-06T08:05:35.848Z,0.65
2023-03-06T08:08:02.231Z,0.45
2023-03-06T08:10:28.542Z,0.55
2023-03-06T08:12:54.902Z,0.57
2023-03-06T08:15:21.343Z,0.70
2023-03-06T08:17:47.770Z,0.30
2023-03-06T08:20:14.497Z,0.65
2023-03-06T08:22:40.811Z,0.30
2023-03-06T08:25:07.870Z,0.40
2023-03-06T08:27:34.963Z,0.50
2023-03-06T08:30:01.399Z,0.50
2023-03-06T08:32:28.431Z,0.60
2023-03-06T08:34:54.768Z,0.43
2023-03-06T08:37:21.203Z,0.60
2023-03-06T08:39:47.650Z,0.32
2023-03-06T08:42:14.560Z,0.60
2023-03-06T08:44:40.937Z,0.50
2023-03-06T08:47:07.317Z,0.40
2023-03-06T08:49:33.670Z,0.40
2023-03-06T08:52:00.158Z,0.20
2023-03-06T08:54:26.459Z,0.50
2023-03-06T08:56:53.271Z,0.60
2023-03-06T08:59:19.640Z,0.50
2023-03-06T09:01:46.646Z,0.40
2023-03-06T09:04:13.041Z,0.93
2023-03-06T09:06:40.989Z,0.30
2023-03-06T09:09:07.553Z,0.30
2023-03-06T09:11:34.200Z,0.30
2023-03-06T09:14:00.993Z,0.40
2023-03-06T09:16:27.476Z,0.60
2023-03-06T09:18:54.270Z,0.80
2023-03-06T09:21:21.869Z,0.40
2023-03-06T09:23:48.296Z,0.45
2023-03-06T09:26:14.647Z,0.30
2023-03-06T09:28:41.291Z,0.43
2023-03-06T09:31:17.658Z,0.25
2023-03-06T09:33:44.158Z,0.20
2023-03-06T09:36:14.753Z,0.28
2023-03-06T09:38:41.252Z,0.80
2023-03-06T09:41:12.558Z,0.47
2023-03-06T09:43:43.884Z,0.43
2023-03-06T09:46:18.894Z,0.45
2023-03-06T09:49:01.250Z,0.70
2023-03-06T09:51:32.200Z,0.63
2023-03-06T09:54:11.927Z,0.65
2023-03-06T09:56:38.302Z,0.60
2023-03-06T09:59:13.737Z,0.70
2023-03-06T10:01:42.040Z,0.55
2023-03-06T10:04:08.356Z,1.67
2023-03-06T10:06:39.661Z,0.90
2023-03-06T10:09:26.735Z,1.40
2023-03-06T10:11:55.809Z,0.70
2023-03-06T10:14:49.364Z,1.38
2023-03-06T10:17:17.516Z,1.60
2023-03-06T10:19:44.156Z,1.98
2023-03-06T10:22:16.310Z,2.63
2023-03-06T10:25:03.019Z,2.80
2023-03-06T10:27:47.942Z,3.05
2023-03-06T10:30:20.550Z,1.75
2023-03-06T10:32:49.153Z,3.33
2023-03-06T10:35:18.543Z,3.33
2023-03-06T10:37:44.935Z,3.08
2023-03-06T10:40:15.850Z,4.40
2023-03-06T10:42:42.181Z,1.98
2023-03-06T10:45:13.154Z,3.15
2023-03-06T10:47:40.221Z,2.95
2023-03-06T10:50:24.995Z,1.77
2023-03-06T10:53:02.202Z,3.60
2023-03-06T10:55:30.154Z,1.77
2023-03-06T10:57:56.911Z,3.90
2023-03-06T11:00:26.449Z,3.15
2023-03-06T11:03:05.000Z,2.47
2023-03-06T11:05:31.338Z,3.10
2023-03-06T11:08:01.800Z,2.17
2023-03-06T11:10:29.110Z,2.80
2023-03-06T11:13:07.626Z,2.80
2023-03-06T11:15:34.436Z,2.70
2023-03-06T11:18:00.763Z,3.10
2023-03-06T11:20:31.783Z,2.55
2023-03-06T11:23:13.922Z,0.77
2023-03-06T11:25:48.227Z,1.88
2023-03-06T11:28:26.637Z,1.42
2023-03-06T11:30:55.558Z,3.90
2023-03-06T11:33:35.866Z,2.88
2023-03-06T11:36:04.984Z,2.15
2023-03-06T11:38:38.830Z,3.97
2023-03-06T11:41:08.222Z,2.95
2023-03-06T11:43:49.737Z,3.10
2023-03-06T11:46:22.853Z,3.85
2023-03-06T11:48:54.249Z,3.65
2023-03-06T11:51:26.339Z,3.05
2023-03-06T11:53:53.206Z,3.67
2023-03-06T11:56:19.666Z,1.92
2023-03-06T11:59:04.239Z,3.30
2023-03-06T12:01:33.471Z,2.63
2023-03-06T12:03:59.819Z,2.90
2023-03-06T12:06:29.001Z,3.20
2023-03-06T12:09:14.202Z,2.55
2023-03-06T12:11:48.395Z,1.20
2023-03-06T12:14:33.418Z,2.60
2023-03-06T12:17:06.900Z,3.00
2023-03-06T12:19:46.282Z,3.00
2023-03-06T12:22:12.618Z,2.53
2023-03-06T12:24:38.913Z,2.88
2023-03-06T12:27:12.372Z,2.95
2023-03-06T12:29:48.939Z,3.17
2023-03-06T12:32:18.429Z,3.30
2023-03-06T12:34:44.820Z,3.40
2023-03-06T12:37:16.967Z,3.00
2023-03-06T12:39:49.189Z,3.42
2023-03-06T12:42:30.806Z,3.80
2023-03-06T12:45:03.156Z,2.97
2023-03-06T12:47:31.444Z,3.38
2023-03-06T12:50:03.709Z,3.05
2023-03-06T12:52:31.375Z,4.32
2023-03-06T12:55:03.466Z,3.60
2023-03-06T12:57:30.049Z,3.45
2023-03-06T12:59:56.428Z,3.10
2023-03-06T13:02:31.093Z,3.33
2023-03-06T13:05:06.576Z,3.55
2023-03-06T13:07:32.913Z,3.58
2023-03-06T13:10:01.988Z,2.78
2023-03-06T13:12:47.027Z,3.47
2023-03-06T13:15:32.071Z,3.10
2023-03-06T13:17:58.868Z,3.05
2023-03-06T13:20:28.171Z,2.90
2023-03-06T13:22:54.651Z,2.22
2023-03-06T13:25:21.119Z,3.17
2023-03-06T13:28:00.119Z,3.13
2023-03-06T13:30:43.392Z,2.50
2023-03-06T13:33:29.943Z,3.70
2023-03-06T13:35:57.301Z,3.58
2023-03-06T13:38:41.847Z,4.22
2023-03-06T13:41:23.297Z,5.28
2023-03-06T13:43:50.290Z,3.17
2023-03-06T13:46:24.904Z,5.00
2023-03-06T13:49:09.466Z,3.95
2023-03-06T13:52:08.181Z,4.13
2023-03-06T13:54:37.562Z,5.00
2023-03-06T13:57:19.242Z,4.50
2023-03-06T14:00:03.193Z,4.72
2023-03-06T14:02:34.814Z,6.68
2023-03-06T14:05:02.709Z,5.25
2023-03-06T14:07:30.498Z,4.82
2023-03-06T14:10:01.772Z,8.50
2023-03-06T14:12:28.106Z,7.10
2023-03-06T14:14:56.453Z,6.47
2023-03-06T14:17:31.274Z,7.80
2023-03-06T14:20:02.710Z,6.50
2023-03-06T14:22:29.089Z,6.78
2023-03-06T14:25:04.436Z,5.00
2023-03-06T14:27:43.734Z,4.70
2023-03-06T14:30:15.316Z,6.40
2023-03-06T14:32:42.074Z,6.13
2023-03-06T14:35:20.084Z,7.22
2023-03-06T14:37:48.307Z,6.28
2023-03-06T14:40:18.491Z,4.18
2023-03-06T14:42:44.799Z,4.20
2023-03-06T14:45:16.579Z,4.38
2023-03-06T14:47:43.461Z,4.90
2023-03-06T14:50:19.235Z,4.45
2023-03-06T14:55:16.009Z,2.53
2023-03-06T14:57:42.734Z,1.63
2023-03-06T15:00:17.280Z,1.80
2023-03-06T15:02:44.412Z,1.70
2023-03-06T15:05:29.872Z,2.13
2023-03-06T15:08:04.207Z,2.03
2023-03-06T15:10:32.146Z,2.55
2023-03-06T15:13:18.554Z,2.42
2023-03-06T15:15:54.560Z,3.22
2023-03-06T15:18:46.935Z,2.30
2023-03-06T15:21:13.261Z,2.88
2023-03-06T15:23:41.061Z,3.92
2023-03-06T15:26:27.535Z,3.42
2023-03-06T15:29:17.029Z,3.17
2023-03-06T15:31:44.443Z,3.85
2023-03-06T15:34:10.837Z,5.40
2023-03-06T15:36:48.126Z,5.68
2023-03-06T15:39:32.812Z,4.75
2023-03-06T15:42:19.673Z,5.50
2023-03-06T15:44:51.206Z,5.63
2023-03-06T15:47:17.752Z,5.38
2023-03-06T15:49:44.480Z,6.13
2023-03-06T15:52:10.871Z,6.35
2023-03-06T15:54:37.698Z,5.90
2023-03-06T15:57:05.369Z,3.70
2023-03-06T15:59:33.199Z,5.97
2023-03-06T16:02:06.934Z,7.90
2023-03-06T16:04:33.398Z,7.93
2023-03-06T16:06:59.779Z,8.32
2023-03-06T16:09:26.689Z,7.60
2023-03-06T16:11:54.001Z,8.80
2023-03-06T16:14:23.633Z,8.55
2023-03-06T16:16:51.080Z,8.52
2023-03-06T16:19:26.052Z,8.25
2023-03-06T16:21:54.261Z,8.57
2023-03-06T16:24:20.572Z,8.65
2023-03-06T16:26:48.497Z,8.23
2023-03-06T16:29:19.364Z,8.48
2023-03-06T16:31:46.113Z,8.63
2023-03-06T16:34:15.726Z,8.93
2023-03-06T16:36:42.169Z,9.23
2023-03-06T16:39:15.359Z,8.40
2023-03-06T16:41:41.936Z,9.45
2023-03-06T16:44:10.221Z,8.20
2023-03-06T16:46:41.771Z,6.57
2023-03-06T16:49:13.339Z,8.70
2023-03-06T16:51:40.393Z,9.07
2023-03-06T16:54:06.788Z,9.38
2023-03-06T16:56:33.304Z,9.45
2023-03-06T16:58:59.645Z,8.68
2023-03-06T17:01:26.021Z,9.02
2023-03-06T17:03:52.600Z,8.90
2023-03-06T17:06:20.521Z,9.55
2023-03-06T17:08:47.771Z,9.60
2023-03-06T17:11:14.186Z,10.07
2023-03-06T17:13:40.843Z,9.88
2023-03-06T17:16:12.551Z,9.85
2023-03-06T17:18:39.009Z,10.15
2023-03-06T17:21:05.427Z,10.90
2023-03-06T17:23:31.838Z,11.93
2023-03-06T17:26:05.348Z,10.57
2023-03-06T17:28:31.754Z,10.27
2023-03-06T17:30:58.132Z,10.20
2023-03-06T17:33:24.540Z,10.57
2023-03-06T17:35:50.897Z,11.27
2023-03-06T17:38:17.304Z,10.80
2023-03-06T17:40:43.968Z,11.48
2023-03-06T17:43:10.262Z,11.35
2023-03-06T17:45:36.705Z,11.57
2023-03-06T17:48:03.067Z,11.55
2023-03-06T17:50:29.523Z,10.40
2023-03-06T17:52:55.923Z,11.15
2023-03-06T17:55:22.354Z,11.70
2023-03-06T17:57:51.620Z,11.13
2023-03-06T18:00:18.314Z,11.13
2023-03-06T18:02:45.365Z,10.63
2023-03-06T18:05:11.890Z,10.80
2023-03-06T18:07:38.344Z,10.82
2023-03-06T18:10:05.180Z,12.00
2023-03-06T18:12:31.807Z,11.20
2023-03-06T18:14:58.163Z,12.02
2023-03-06T18:17:24.537Z,10.85
2023-03-06T18:19:51.151Z,12.63
2023-03-06T18:22:17.486Z,11.40
2023-03-06T18:24:43.955Z,11.65
2023-03-06T18:27:10.311Z,11.52
2023-03-06T18:29:36.742Z,11.95
2023-03-06T18:32:03.272Z,11.27
2023-03-06T18:34:29.734Z,12.43
2023-03-06T18:36:56.091Z,11.80
2023-03-06T18:39:22.532Z,11.20
2023-03-06T18:41:49.171Z,12.55
2023-03-06T18:44:16.301Z,10.95
2023-03-06T18:46:43.246Z,10.40
2023-03-06T18:49:10.580Z,10.82
2023-03-06T18:51:37.040Z,11.27
2023-03-06T18:54:04.055Z,12.05
2023-03-06T18:56:30.462Z,10.63
2023-03-06T18:59:00.094Z,10.30
2023-03-06T19:01:27.205Z,10.40
2023-03-06T19:03:53.712Z,10.93
2023-03-06T19:06:20.305Z,9.07
2023-03-06T19:08:46.762Z,9.70
2023-03-06T19:11:14.561Z,10.27
2023-03-06T19:13:41.068Z,9.45
2023-03-06T19:16:07.651Z,9.40
2023-03-06T19:18:34.105Z,9.07
2023-03-06T19:21:06.779Z,9.45
2023-03-06T19:23:33.133Z,8.10
2023-03-06T19:25:59.540Z,8.77
2023-03-06T19:28:26.530Z,7.43
2023-03-06T19:30:52.923Z,8.45
2023-03-06T19:33:19.847Z,7.85
2023-03-06T19:35:46.478Z,8.30
2023-03-06T19:38:13.663Z,8.50
2023-03-06T19:40:40.028Z,8.38
2023-03-06T19:43:06.491Z,8.45
2023-03-06T19:45:32.931Z,8.43
2023-03-06T19:48:00.960Z,7.75
2023-03-06T19:50:31.107Z,7.38
2023-03-06T19:52:57.959Z,6.72
2023-03-06T19:55:26.355Z,5.70
2023-03-06T19:57:53.370Z,5.30
2023-03-06T20:00:19.874Z,4.80
2023-03-06T20:02:46.286Z,4.28
2023-03-06T20:05:12.796Z,3.83
2023-03-06T20:07:39.529Z,2.92
2023-03-06T20:10:06.101Z,2.40
2023-03-06T20:12:33.218Z,2.00
2023-03-06T20:15:00.178Z,1.83
2023-03-06T20:17:26.581Z,1.17
2023-03-06T20:19:53.117Z,1.30
2023-03-06T20:22:19.495Z,1.25
2023-03-06T20:24:45.946Z,1.15
2023-03-06T20:27:12.253Z,0.90
2023-03-06T20:29:43.284Z,0.80
2023-03-06T20:32:09.683Z,1.38
2023-03-06T20:34:38.722Z,1.10
2023-03-06T20:37:08.680Z,1.50
2023-03-06T20:39:35.307Z,1.30
2023-03-06T20:42:01.873Z,1.48
2023-03-06T20:44:28.731Z,1.60
2023-03-06T20:46:55.304Z,1.20
2023-03-06T20:49:21.983Z,0.70
2023-03-06T20:51:48.440Z,1.30
2023-03-06T20:54:14.971Z,0.85
2023-03-06T20:56:42.449Z,0.70
2023-03-06T20:59:11.569Z,0.80
2023-03-06T21:01:41.047Z,0.60
2023-03-06T21:04:09.740Z,0.63
2023-03-06T21:06:36.776Z,0.70
2023-03-06T21:09:04.793Z,0.80
2023-03-06T21:11:31.158Z,1.17
2023-03-06T21:13:57.477Z,0.88
2023-03-06T21:16:24.905Z,0.70
2023-03-06T21:18:51.526Z,0.85
2023-03-06T21:21:19.484Z,0.80
2023-03-06T21:23:47.159Z,1.20
2023-03-06T21:26:15.098Z,0.80
2023-03-06T21:28:41.642Z,1.00
2023-03-06T21:31:09.177Z,0.50
2023-03-06T21:33:35.960Z,0.80
2023-03-06T21:36:02.421Z,0.43
2023-03-06T21:38:28.816Z,0.52
2023-03-06T21:40:56.021Z,0.50
2023-03-06T21:43:22.578Z,2.08
2023-03-06T21:45:52.554Z,0.80
2023-03-06T21:48:19.228Z,0.98
2023-03-06T21:50:45.583Z,0.88
2023-03-06T21:53:11.991Z,0.95
2023-03-06T21:55:40.882Z,1.00
2023-03-06T21:58:07.451Z,1.88
2023-03-06T22:00:36.659Z,1.40
2023-03-06T22:03:03.637Z,1.70
2023-03-06T22:05:31.809Z,1.38
2023-03-06T22:07:58.754Z,1.50
2023-03-06T22:10:25.177Z,1.65
2023-03-06T22:12:51.521Z,1.63
2023-03-06T22:15:18.178Z,0.93
2023-03-06T22:17:45.372Z,1.48
2023-03-06T22:20:13.125Z,1.48
2023-03-06T22:22:39.495Z,1.15
2023-03-06T22:25:06.025Z,0.80
2023-03-06T22:27:32.736Z,0.77
2023-03-06T22:29:59.066Z,0.75
2023-03-06T22:32:25.539Z,0.70
2023-03-06T22:34:52.006Z,0.68
2023-03-06T22:37:18.443Z,1.33
2023-03-06T22:39:44.810Z,1.17
2023-03-06T22:42:11.152Z,1.17
2023-03-06T22:44:37.582Z,0.90
2023-03-06T22:47:03.973Z,0.73
2023-03-06T22:49:30.373Z,0.70
2023-03-06T22:51:56.753Z,1.30
2023-03-06T22:54:23.067Z,0.90
2023-03-06T22:56:49.425Z,0.85
2023-03-06T22:59:15.729Z,0.93
2023-03-06T23:01:43.175Z,0.98
2023-03-06T23:04:11.307Z,0.75
2023-03-06T23:06:39.763Z,1.38
2023-03-06T23:09:14.591Z,1.10
2023-03-06T23:11:41.262Z,1.75
2023-03-06T23:14:07.585Z,1.65
2023-03-06T23:16:33.968Z,1.40
2023-03-06T23:19:00.333Z,1.10
2023-03-06T23:21:26.651Z,1.30
2023-03-06T23:23:53.638Z,1.50
2023-03-06T23:26:21.441Z,1.52
2023-03-06T23:28:48.159Z,1.55
2023-03-06T23:31:15.790Z,1.23
2023-03-06T23:33:42.546Z,1.35
2023-03-06T23:36:10.920Z,1.45
2023-03-06T23:38:37.440Z,1.75
2023-03-06T23:41:07.830Z,1.45
2023-03-06T23:43:34.589Z,1.60
2023-03-06T23:46:01.374Z,2.30
2023-03-06T23:48:27.965Z,1.40
2023-03-06T23:50:54.606Z,2.30
2023-03-06T23:53:21.385Z,2.22
2023-03-06T23:55:48.950Z,1.92
2023-03-06T23:58:15.830Z,1.33
